sensor_id;sensor_type;location;lat;lon;timestamp;temperature;humidity
44627;DHT22;30333;52.192;8.834;2022-09-28T00:00:19;9.50;99.90
44627;DHT22;30333;52.192;8.834;2022-09-28T00:02:46;9.50;99.90
44627;DHT22;30333;52.192;8.834;2022-09-28T00:05:14;9.40;99.90
44627;DHT22;30333;52.192;8.834;2022-09-28T00:07:42;9.40;99.90
44627;DHT22;30333;52.192;8.834;2022-09-28T00:10:09;9.50;99.90
44627;DHT22;30333;52.192;8.834;2022-09-28T00:12:36;9.50;99.90
44627;DHT22;30333;52.192;8.834;2022-09-28T00:15:03;9.40;99.90
44627;DHT22;30333;52.192;8.834;2022-09-28T00:17:30;9.40;99.90
44627;DHT22;30333;52.192;8.834;2022-09-28T00:19:57;9.40;99.90
44627;DHT22;30333;52.192;8.834;2022-09-28T00:22:24;9.40;99.90
44627;DHT22;30333;52.192;8.834;2022-09-28T00:24:52;9.40;99.90
44627;DHT22;30333;52.192;8.834;2022-09-28T00:27:18;9.30;99.90
44627;DHT22;30333;52.192;8.834;2022-09-28T00:29:45;9.40;99.90
44627;DHT22;30333;52.192;8.834;2022-09-28T00:32:12;9.30;99.90
44627;DHT22;30333;52.192;8.834;2022-09-28T00:34:40;9.30;99.90
44627;DHT22;30333;52.192;8.834;2022-09-28T00:37:09;9.20;99.90
44627;DHT22;30333;52.192;8.834;2022-09-28T00:39:36;9.10;99.90
44627;DHT22;30333;52.192;8.834;2022-09-28T00:42:11;9.10;99.90
44627;DHT22;30333;52.192;8.834;2022-09-28T00:44:45;9.20;99.90
44627;DHT22;30333;52.192;8.834;2022-09-28T00:47:20;9.10;99.90
44627;DHT22;30333;52.192;8.834;2022-09-28T00:49:52;9.20;99.90
44627;DHT22;30333;52.192;8.834;2022-09-28T00:52:24;9.20;99.90
44627;DHT22;30333;52.192;8.834;2022-09-28T00:54:54;9.20;99.90
44627;DHT22;30333;52.192;8.834;2022-09-28T00:57:24;9.30;99.90
44627;DHT22;30333;52.192;8.834;2022-09-28T00:59:51;9.20;99.90
44627;DHT22;30333;52.192;8.834;2022-09-28T01:02:18;9.20;99.90
44627;DHT22;30333;52.192;8.834;2022-09-28T01:04:47;9.10;99.90
44627;DHT22;30333;52.192;8.834;2022-09-28T01:07:15;9.20;99.90
44627;DHT22;30333;52.192;8.834;2022-09-28T01:09:43;9.10;99.90
44627;DHT22;30333;52.192;8.834;2022-09-28T01:12:11;9.20;99.90
44627;DHT22;30333;52.192;8.834;2022-09-28T01:14:40;9.20;99.90
44627;DHT22;30333;52.192;8.834;2022-09-28T01:17:10;9.20;99.90
44627;DHT22;30333;52.192;8.834;2022-09-28T01:20:06;9.20;99.90
44627;DHT22;30333;52.192;8.834;2022-09-28T01:22:57;9.30;99.90
44627;DHT22;30333;52.192;8.834;2022-09-28T01:25:37;9.30;99.90
44627;DHT22;30333;52.192;8.834;2022-09-28T01:28:09;9.30;99.90
44627;DHT22;30333;52.192;8.834;2022-09-28T01:30:42;9.30;99.90
44627;DHT22;30333;52.192;8.834;2022-09-28T01:33:13;9.30;99.90
44627;DHT22;30333;52.192;8.834;2022-09-28T01:35:47;9.30;99.90
44627;DHT22;30333;52.192;8.834;2022-09-28T01:38:19;9.30;99.90
44627;DHT22;30333;52.192;8.834;2022-09-28T01:40:48;9.30;99.90
44627;DHT22;30333;52.192;8.834;2022-09-28T01:43:21;9.30;99.90
44627;DHT22;30333;52.192;8.834;2022-09-28T01:45:51;9.30;99.90
44627;DHT22;30333;52.192;8.834;2022-09-28T01:48:23;9.30;99.90
44627;DHT22;30333;52.192;8.834;2022-09-28T01:50:54;9.30;99.90
44627;DHT22;30333;52.192;8.834;2022-09-28T01:53:31;9.30;99.90
44627;DHT22;30333;52.192;8.834;2022-09-28T01:56:03;9.30;99.90
44627;DHT22;30333;52.192;8.834;2022-09-28T01:58:36;9.30;99.90
44627;DHT22;30333;52.192;8.834;2022-09-28T02:01:06;9.30;99.90
44627;DHT22;30333;52.192;8.834;2022-09-28T02:03:38;9.20;99.90
44627;DHT22;30333;52.192;8.834;2022-09-28T02:06:09;9.20;99.90
44627;DHT22;30333;52.192;8.834;2022-09-28T02:08:44;9.10;99.90
44627;DHT22;30333;52.192;8.834;2022-09-28T02:11:13;9.20;99.90
44627;DHT22;30333;52.192;8.834;2022-09-28T02:13:43;9.20;99.90
44627;DHT22;30333;52.192;8.834;2022-09-28T02:16:16;9.30;99.90
44627;DHT22;30333;52.192;8.834;2022-09-28T02:18:45;9.30;99.90
44627;DHT22;30333;52.192;8.834;2022-09-28T02:21:15;9.30;99.90
44627;DHT22;30333;52.192;8.834;2022-09-28T02:23:50;9.40;99.90
44627;DHT22;30333;52.192;8.834;2022-09-28T02:26:21;9.40;99.90
44627;DHT22;30333;52.192;8.834;2022-09-28T02:28:50;9.40;99.90
44627;DHT22;30333;52.192;8.834;2022-09-28T02:31:16;9.40;99.90
44627;DHT22;30333;52.192;8.834;2022-09-28T02:33:44;9.30;99.90
44627;DHT22;30333;52.192;8.834;2022-09-28T02:36:11;9.30;99.90
44627;DHT22;30333;52.192;8.834;2022-09-28T02:38:38;9.20;99.90
44627;DHT22;30333;52.192;8.834;2022-09-28T02:41:10;9.30;99.90
44627;DHT22;30333;52.192;8.834;2022-09-28T02:43:51;9.20;99.90
44627;DHT22;30333;52.192;8.834;2022-09-28T02:46:27;9.00;99.90
44627;DHT22;30333;52.192;8.834;2022-09-28T02:49:04;8.90;99.90
44627;DHT22;30333;52.192;8.834;2022-09-28T02:52:07;9.00;99.90
44627;DHT22;30333;52.192;8.834;2022-09-28T02:55:00;9.00;99.90
44627;DHT22;30333;52.192;8.834;2022-09-28T02:57:36;8.80;99.90
44627;DHT22;30333;52.192;8.834;2022-09-28T03:00:11;8.90;99.90
44627;DHT22;30333;52.192;8.834;2022-09-28T03:02:46;9.00;99.90
44627;DHT22;30333;52.192;8.834;2022-09-28T03:05:18;9.00;99.90
44627;DHT22;30333;52.192;8.834;2022-09-28T03:07:51;9.00;99.90
44627;DHT22;30333;52.192;8.834;2022-09-28T03:10:25;9.00;99.90
44627;DHT22;30333;52.192;8.834;2022-09-28T03:12:54;9.10;99.90
44627;DHT22;30333;52.192;8.834;2022-09-28T03:15:24;9.20;99.90
44627;DHT22;30333;52.192;8.834;2022-09-28T03:17:51;9.10;99.90
44627;DHT22;30333;52.192;8.834;2022-09-28T03:20:18;9.10;99.90
44627;DHT22;30333;52.192;8.834;2022-09-28T03:22:45;9.10;99.90
44627;DHT22;30333;52.192;8.834;2022-09-28T03:25:32;9.10;99.90
44627;DHT22;30333;52.192;8.834;2022-09-28T03:27:59;9.20;99.90
44627;DHT22;30333;52.192;8.834;2022-09-28T03:30:27;9.20;99.90
44627;DHT22;30333;52.192;8.834;2022-09-28T03:32:57;9.20;99.90
44627;DHT22;30333;52.192;8.834;2022-09-28T03:35:24;9.20;99.90
44627;DHT22;30333;52.192;8.834;2022-09-28T03:37:53;9.20;99.90
44627;DHT22;30333;52.192;8.834;2022-09-28T03:42:48;9.20;99.90
44627;DHT22;30333;52.192;8.834;2022-09-28T03:45:15;9.30;99.90
44627;DHT22;30333;52.192;8.834;2022-09-28T03:47:45;9.20;99.90
44627;DHT22;30333;52.192;8.834;2022-09-28T03:50:12;9.20;99.90
44627;DHT22;30333;52.192;8.834;2022-09-28T03:52:40;9.30;99.90
44627;DHT22;30333;52.192;8.834;2022-09-28T03:55:07;9.30;99.90
44627;DHT22;30333;52.192;8.834;2022-09-28T03:57:34;9.30;99.90
44627;DHT22;30333;52.192;8.834;2022-09-28T04:00:02;9.30;99.90
44627;DHT22;30333;52.192;8.834;2022-09-28T04:02:29;9.30;99.90
44627;DHT22;30333;52.192;8.834;2022-09-28T04:04:57;9.30;99.90
44627;DHT22;30333;52.192;8.834;2022-09-28T04:07:24;9.30;99.90
44627;DHT22;30333;52.192;8.834;2022-09-28T04:09:56;9.30;99.90
44627;DHT22;30333;52.192;8.834;2022-09-28T04:14:50;9.30;99.90
44627;DHT22;30333;52.192;8.834;2022-09-28T04:17:16;9.30;99.90
44627;DHT22;30333;52.192;8.834;2022-09-28T04:19:43;9.40;99.90
44627;DHT22;30333;52.192;8.834;2022-09-28T04:22:11;9.30;99.90
44627;DHT22;30333;52.192;8.834;2022-09-28T04:27:10;9.30;99.90
44627;DHT22;30333;52.192;8.834;2022-09-28T04:29:55;9.30;99.90
44627;DHT22;30333;52.192;8.834;2022-09-28T04:32:22;9.30;99.90
44627;DHT22;30333;52.192;8.834;2022-09-28T04:34:49;9.00;99.90
44627;DHT22;30333;52.192;8.834;2022-09-28T04:37:18;9.00;99.90
44627;DHT22;30333;52.192;8.834;2022-09-28T04:39:45;9.10;99.90
44627;DHT22;30333;52.192;8.834;2022-09-28T04:42:14;9.10;99.90
44627;DHT22;30333;52.192;8.834;2022-09-28T04:44:41;9.20;99.90
44627;DHT22;30333;52.192;8.834;2022-09-28T04:47:08;9.20;99.90
44627;DHT22;30333;52.192;8.834;2022-09-28T04:52:03;9.20;99.90
44627;DHT22;30333;52.192;8.834;2022-09-28T04:54:32;9.30;99.90
44627;DHT22;30333;52.192;8.834;2022-09-28T04:56:58;9.30;99.90
44627;DHT22;30333;52.192;8.834;2022-09-28T04:59:25;9.30;99.90
44627;DHT22;30333;52.192;8.834;2022-09-28T05:01:52;9.30;99.90
44627;DHT22;30333;52.192;8.834;2022-09-28T05:04:19;9.30;99.90
44627;DHT22;30333;52.192;8.834;2022-09-28T05:06:51;9.20;99.90
44627;DHT22;30333;52.192;8.834;2022-09-28T05:09:18;9.30;99.90
44627;DHT22;30333;52.192;8.834;2022-09-28T05:11:47;9.30;99.90
44627;DHT22;30333;52.192;8.834;2022-09-28T05:14:14;9.20;99.90
44627;DHT22;30333;52.192;8.834;2022-09-28T05:16:41;9.30;99.90
44627;DHT22;30333;52.192;8.834;2022-09-28T05:19:10;9.30;99.90
44627;DHT22;30333;52.192;8.834;2022-09-28T05:24:05;9.20;99.90
44627;DHT22;30333;52.192;8.834;2022-09-28T05:26:33;9.10;99.90
44627;DHT22;30333;52.192;8.834;2022-09-28T05:29:01;9.10;99.90
44627;DHT22;30333;52.192;8.834;2022-09-28T05:31:28;9.20;99.90
44627;DHT22;30333;52.192;8.834;2022-09-28T05:33:55;9.30;99.90
44627;DHT22;30333;52.192;8.834;2022-09-28T05:36:21;9.30;99.90
44627;DHT22;30333;52.192;8.834;2022-09-28T05:38:49;9.20;99.90
44627;DHT22;30333;52.192;8.834;2022-09-28T05:41:16;9.10;99.90
44627;DHT22;30333;52.192;8.834;2022-09-28T05:43:43;9.10;99.90
44627;DHT22;30333;52.192;8.834;2022-09-28T05:46:12;9.20;99.90
44627;DHT22;30333;52.192;8.834;2022-09-28T05:48:40;9.10;99.90
44627;DHT22;30333;52.192;8.834;2022-09-28T05:51:06;9.00;99.90
44627;DHT22;30333;52.192;8.834;2022-09-28T05:53:35;9.10;99.90
44627;DHT22;30333;52.192;8.834;2022-09-28T05:56:02;8.90;99.90
44627;DHT22;30333;52.192;8.834;2022-09-28T05:58:29;8.90;99.90
44627;DHT22;30333;52.192;8.834;2022-09-28T06:00:56;9.10;99.90
44627;DHT22;30333;52.192;8.834;2022-09-28T06:03:25;9.10;99.90
44627;DHT22;30333;52.192;8.834;2022-09-28T06:05:52;9.00;99.90
44627;DHT22;30333;52.192;8.834;2022-09-28T06:08:19;9.00;99.90
44627;DHT22;30333;52.192;8.834;2022-09-28T06:10:46;9.10;99.90
44627;DHT22;30333;52.192;8.834;2022-09-28T06:15:41;9.10;99.90
44627;DHT22;30333;52.192;8.834;2022-09-28T06:18:10;9.10;99.90
44627;DHT22;30333;52.192;8.834;2022-09-28T06:20:41;9.10;99.90
44627;DHT22;30333;52.192;8.834;2022-09-28T06:23:08;9.10;99.90
44627;DHT22;30333;52.192;8.834;2022-09-28T06:28:04;9.30;99.90
44627;DHT22;30333;52.192;8.834;2022-09-28T06:30:33;9.30;99.90
44627;DHT22;30333;52.192;8.834;2022-09-28T06:33:01;9.30;99.90
44627;DHT22;30333;52.192;8.834;2022-09-28T06:35:29;9.40;99.90
44627;DHT22;30333;52.192;8.834;2022-09-28T06:37:58;9.30;99.90
44627;DHT22;30333;52.192;8.834;2022-09-28T06:40:25;9.30;99.90
44627;DHT22;30333;52.192;8.834;2022-09-28T06:42:57;9.30;99.90
44627;DHT22;30333;52.192;8.834;2022-09-28T06:45:25;9.40;99.90
44627;DHT22;30333;52.192;8.834;2022-09-28T06:47:53;9.30;99.90
44627;DHT22;30333;52.192;8.834;2022-09-28T06:50:22;9.50;99.90
44627;DHT22;30333;52.192;8.834;2022-09-28T06:52:50;9.50;99.90
44627;DHT22;30333;52.192;8.834;2022-09-28T06:55:19;9.40;99.90
44627;DHT22;30333;52.192;8.834;2022-09-28T06:57:46;9.30;99.90
44627;DHT22;30333;52.192;8.834;2022-09-28T07:00:13;9.30;99.90
44627;DHT22;30333;52.192;8.834;2022-09-28T07:02:40;9.30;99.90
44627;DHT22;30333;52.192;8.834;2022-09-28T07:05:10;9.40;99.90
44627;DHT22;30333;52.192;8.834;2022-09-28T07:07:39;9.20;99.90
44627;DHT22;30333;52.192;8.834;2022-09-28T07:10:09;9.10;99.90
44627;DHT22;30333;52.192;8.834;2022-09-28T07:12:37;9.10;99.90
44627;DHT22;30333;52.192;8.834;2022-09-28T07:15:06;9.10;99.90
44627;DHT22;30333;52.192;8.834;2022-09-28T07:17:33;9.30;99.90
44627;DHT22;30333;52.192;8.834;2022-09-28T07:20:20;9.30;99.90
44627;DHT22;30333;52.192;8.834;2022-09-28T07:22:51;9.40;99.90
44627;DHT22;30333;52.192;8.834;2022-09-28T07:25:18;9.50;99.90
44627;DHT22;30333;52.192;8.834;2022-09-28T07:27:47;9.60;99.90
44627;DHT22;30333;52.192;8.834;2022-09-28T07:40:05;9.60;99.90
44627;DHT22;30333;52.192;8.834;2022-09-28T07:42:52;9.50;99.90
44627;DHT22;30333;52.192;8.834;2022-09-28T07:45:19;9.30;99.90
44627;DHT22;30333;52.192;8.834;2022-09-28T07:47:49;9.40;99.90
44627;DHT22;30333;52.192;8.834;2022-09-28T07:50:16;9.30;99.90
44627;DHT22;30333;52.192;8.834;2022-09-28T07:52:43;9.20;99.90
44627;DHT22;30333;52.192;8.834;2022-09-28T08:00:08;9.40;99.90
44627;DHT22;30333;52.192;8.834;2022-09-28T08:02:36;9.40;99.90
44627;DHT22;30333;52.192;8.834;2022-09-28T08:05:04;9.40;99.90
44627;DHT22;30333;52.192;8.834;2022-09-28T08:07:31;9.40;99.90
44627;DHT22;30333;52.192;8.834;2022-09-28T08:09:58;9.40;99.90
44627;DHT22;30333;52.192;8.834;2022-09-28T08:12:25;9.30;99.90
44627;DHT22;30333;52.192;8.834;2022-09-28T08:17:20;9.40;99.90
44627;DHT22;30333;52.192;8.834;2022-09-28T08:19:46;9.60;99.90
44627;DHT22;30333;52.192;8.834;2022-09-28T08:22:32;9.40;99.90
44627;DHT22;30333;52.192;8.834;2022-09-28T08:24:59;9.20;99.90
44627;DHT22;30333;52.192;8.834;2022-09-28T08:29:52;9.10;99.90
44627;DHT22;30333;52.192;8.834;2022-09-28T08:32:21;9.20;99.90
44627;DHT22;30333;52.192;8.834;2022-09-28T08:34:47;9.20;99.90
44627;DHT22;30333;52.192;8.834;2022-09-28T08:37:14;9.20;99.90
44627;DHT22;30333;52.192;8.834;2022-09-28T08:39:41;9.20;99.90
44627;DHT22;30333;52.192;8.834;2022-09-28T08:42:19;9.50;99.90
44627;DHT22;30333;52.192;8.834;2022-09-28T08:44:53;9.50;99.90
44627;DHT22;30333;52.192;8.834;2022-09-28T08:47:29;9.40;99.90
44627;DHT22;30333;52.192;8.834;2022-09-28T08:50:17;9.40;99.90
44627;DHT22;30333;52.192;8.834;2022-09-28T08:52:47;9.40;99.90
44627;DHT22;30333;52.192;8.834;2022-09-28T08:55:21;9.50;99.90
44627;DHT22;30333;52.192;8.834;2022-09-28T08:57:52;9.60;99.90
44627;DHT22;30333;52.192;8.834;2022-09-28T09:00:22;9.40;99.90
44627;DHT22;30333;52.192;8.834;2022-09-28T09:02:54;9.40;99.90
44627;DHT22;30333;52.192;8.834;2022-09-28T09:05:37;9.70;99.90
44627;DHT22;30333;52.192;8.834;2022-09-28T09:08:14;9.70;99.90
44627;DHT22;30333;52.192;8.834;2022-09-28T09:10:50;9.80;99.90
44627;DHT22;30333;52.192;8.834;2022-09-28T09:13:38;9.60;99.90
44627;DHT22;30333;52.192;8.834;2022-09-28T09:16:12;9.80;99.90
44627;DHT22;30333;52.192;8.834;2022-09-28T09:18:48;10.00;99.90
44627;DHT22;30333;52.192;8.834;2022-09-28T09:21:38;10.00;99.90
44627;DHT22;30333;52.192;8.834;2022-09-28T09:24:17;10.10;99.90
44627;DHT22;30333;52.192;8.834;2022-09-28T09:26:50;10.30;99.90
44627;DHT22;30333;52.192;8.834;2022-09-28T09:29:30;10.60;99.90
44627;DHT22;30333;52.192;8.834;2022-09-28T09:32:11;10.70;99.90
44627;DHT22;30333;52.192;8.834;2022-09-28T09:35:17;10.80;99.90
44627;DHT22;30333;52.192;8.834;2022-09-28T09:38:08;10.70;99.90
44627;DHT22;30333;52.192;8.834;2022-09-28T09:43:31;10.50;99.90
44627;DHT22;30333;52.192;8.834;2022-09-28T09:46:11;10.70;99.90
44627;DHT22;30333;52.192;8.834;2022-09-28T09:48:48;10.80;99.90
44627;DHT22;30333;52.192;8.834;2022-09-28T09:51:21;10.70;99.90
44627;DHT22;30333;52.192;8.834;2022-09-28T09:53:52;10.80;99.90
44627;DHT22;30333;52.192;8.834;2022-09-28T09:56:27;10.90;99.90
44627;DHT22;30333;52.192;8.834;2022-09-28T09:59:00;10.90;99.90
44627;DHT22;30333;52.192;8.834;2022-09-28T10:01:32;11.00;99.90
44627;DHT22;30333;52.192;8.834;2022-09-28T10:04:01;11.20;99.90
44627;DHT22;30333;52.192;8.834;2022-09-28T10:06:32;11.20;99.90
44627;DHT22;30333;52.192;8.834;2022-09-28T10:09:03;11.10;99.90
44627;DHT22;30333;52.192;8.834;2022-09-28T10:11:33;11.20;99.90
44627;DHT22;30333;52.192;8.834;2022-09-28T10:14:02;11.20;99.90
44627;DHT22;30333;52.192;8.834;2022-09-28T10:16:30;10.80;99.90
44627;DHT22;30333;52.192;8.834;2022-09-28T10:18:59;11.00;99.90
44627;DHT22;30333;52.192;8.834;2022-09-28T10:21:26;11.20;99.90
44627;DHT22;30333;52.192;8.834;2022-09-28T10:23:57;11.10;99.90
44627;DHT22;30333;52.192;8.834;2022-09-28T10:26:28;11.30;99.90
44627;DHT22;30333;52.192;8.834;2022-09-28T10:28:59;11.20;99.90
44627;DHT22;30333;52.192;8.834;2022-09-28T10:31:38;11.20;99.90
44627;DHT22;30333;52.192;8.834;2022-09-28T10:34:06;11.50;99.90
44627;DHT22;30333;52.192;8.834;2022-09-28T10:36:45;11.40;99.90
44627;DHT22;30333;52.192;8.834;2022-09-28T10:39:39;11.00;99.90
44627;DHT22;30333;52.192;8.834;2022-09-28T10:42:11;10.90;99.90
44627;DHT22;30333;52.192;8.834;2022-09-28T10:44:50;11.10;99.90
44627;DHT22;30333;52.192;8.834;2022-09-28T10:47:21;11.00;99.90
44627;DHT22;30333;52.192;8.834;2022-09-28T10:49:48;11.10;99.90
44627;DHT22;30333;52.192;8.834;2022-09-28T10:52:34;11.10;99.90
44627;DHT22;30333;52.192;8.834;2022-09-28T10:55:23;11.30;99.90
44627;DHT22;30333;52.192;8.834;2022-09-28T10:57:51;11.60;99.90
44627;DHT22;30333;52.192;8.834;2022-09-28T11:00:37;11.60;99.90
44627;DHT22;30333;52.192;8.834;2022-09-28T11:03:13;11.70;99.90
44627;DHT22;30333;52.192;8.834;2022-09-28T11:05:52;11.80;99.90
44627;DHT22;30333;52.192;8.834;2022-09-28T11:08:24;11.70;99.90
44627;DHT22;30333;52.192;8.834;2022-09-28T11:11:02;11.60;99.90
44627;DHT22;30333;52.192;8.834;2022-09-28T11:13:29;11.60;99.90
44627;DHT22;30333;52.192;8.834;2022-09-28T11:15:57;11.60;99.90
44627;DHT22;30333;52.192;8.834;2022-09-28T11:18:27;11.80;99.90
44627;DHT22;30333;52.192;8.834;2022-09-28T11:21:07;11.90;99.90
44627;DHT22;30333;52.192;8.834;2022-09-28T11:23:38;11.90;99.90
44627;DHT22;30333;52.192;8.834;2022-09-28T11:26:08;11.90;99.90
44627;DHT22;30333;52.192;8.834;2022-09-28T11:28:49;11.90;99.90
44627;DHT22;30333;52.192;8.834;2022-09-28T11:31:23;12.10;99.90
44627;DHT22;30333;52.192;8.834;2022-09-28T11:34:02;12.20;99.90
44627;DHT22;30333;52.192;8.834;2022-09-28T11:36:40;12.20;99.90
44627;DHT22;30333;52.192;8.834;2022-09-28T11:39:11;12.20;99.90
44627;DHT22;30333;52.192;8.834;2022-09-28T11:41:53;12.40;99.90
44627;DHT22;30333;52.192;8.834;2022-09-28T11:44:34;12.50;99.90
44627;DHT22;30333;52.192;8.834;2022-09-28T11:47:15;12.70;99.90
44627;DHT22;30333;52.192;8.834;2022-09-28T11:49:45;12.70;99.90
44627;DHT22;30333;52.192;8.834;2022-09-28T11:52:20;12.60;99.90
44627;DHT22;30333;52.192;8.834;2022-09-28T11:54:52;12.80;99.90
44627;DHT22;30333;52.192;8.834;2022-09-28T11:57:25;13.00;99.90
44627;DHT22;30333;52.192;8.834;2022-09-28T11:59:56;12.80;99.90
44627;DHT22;30333;52.192;8.834;2022-09-28T12:02:26;12.60;99.90
44627;DHT22;30333;52.192;8.834;2022-09-28T12:04:57;12.50;99.90
44627;DHT22;30333;52.192;8.834;2022-09-28T12:07:31;12.50;99.90
44627;DHT22;30333;52.192;8.834;2022-09-28T12:10:05;12.80;99.90
44627;DHT22;30333;52.192;8.834;2022-09-28T12:12:37;12.80;99.90
44627;DHT22;30333;52.192;8.834;2022-09-28T12:15:14;12.70;99.90
44627;DHT22;30333;52.192;8.834;2022-09-28T12:17:47;13.00;99.90
44627;DHT22;30333;52.192;8.834;2022-09-28T12:20:19;13.30;99.90
44627;DHT22;30333;52.192;8.834;2022-09-28T12:22:54;13.20;99.90
44627;DHT22;30333;52.192;8.834;2022-09-28T12:25:28;13.20;99.90
44627;DHT22;30333;52.192;8.834;2022-09-28T12:28:02;12.90;99.90
44627;DHT22;30333;52.192;8.834;2022-09-28T12:30:34;12.90;99.90
44627;DHT22;30333;52.192;8.834;2022-09-28T12:33:05;12.60;99.90
44627;DHT22;30333;52.192;8.834;2022-09-28T12:35:44;12.90;99.90
44627;DHT22;30333;52.192;8.834;2022-09-28T12:38:31;13.00;99.90
44627;DHT22;30333;52.192;8.834;2022-09-28T12:41:04;13.20;99.90
44627;DHT22;30333;52.192;8.834;2022-09-28T12:44:04;13.30;99.90
44627;DHT22;30333;52.192;8.834;2022-09-28T12:46:48;13.20;99.90
44627;DHT22;30333;52.192;8.834;2022-09-28T12:49:30;13.00;99.90
44627;DHT22;30333;52.192;8.834;2022-09-28T12:52:27;12.80;99.90
44627;DHT22;30333;52.192;8.834;2022-09-28T12:55:06;12.50;99.90
44627;DHT22;30333;52.192;8.834;2022-09-28T12:57:42;12.60;99.90
44627;DHT22;30333;52.192;8.834;2022-09-28T13:00:15;12.50;99.90
44627;DHT22;30333;52.192;8.834;2022-09-28T13:03:14;11.90;99.90
44627;DHT22;30333;52.192;8.834;2022-09-28T13:08:46;11.40;99.90
44627;DHT22;30333;52.192;8.834;2022-09-28T13:11:21;11.00;99.90
44627;DHT22;30333;52.192;8.834;2022-09-28T13:13:56;10.80;99.90
44627;DHT22;30333;52.192;8.834;2022-09-28T13:16:34;10.70;99.90
44627;DHT22;30333;52.192;8.834;2022-09-28T13:19:06;10.60;99.90
44627;DHT22;30333;52.192;8.834;2022-09-28T13:21:40;10.50;99.90
44627;DHT22;30333;52.192;8.834;2022-09-28T13:24:13;10.50;99.90
44627;DHT22;30333;52.192;8.834;2022-09-28T13:27:02;10.60;99.90
44627;DHT22;30333;52.192;8.834;2022-09-28T13:29:31;10.70;99.90
44627;DHT22;30333;52.192;8.834;2022-09-28T13:32:01;10.70;99.90
44627;DHT22;30333;52.192;8.834;2022-09-28T13:34:31;10.70;99.90
44627;DHT22;30333;52.192;8.834;2022-09-28T13:37:09;10.70;99.90
44627;DHT22;30333;52.192;8.834;2022-09-28T13:39:47;10.70;99.90
44627;DHT22;30333;52.192;8.834;2022-09-28T13:42:24;10.70;99.90
44627;DHT22;30333;52.192;8.834;2022-09-28T13:45:20;10.70;99.90
44627;DHT22;30333;52.192;8.834;2022-09-28T13:48:12;10.60;99.90
44627;DHT22;30333;52.192;8.834;2022-09-28T13:54:04;10.40;99.90
44627;DHT22;30333;52.192;8.834;2022-09-28T13:56:38;10.60;99.90
44627;DHT22;30333;52.192;8.834;2022-09-28T13:59:14;10.80;99.90
44627;DHT22;30333;52.192;8.834;2022-09-28T14:01:50;11.00;99.90
44627;DHT22;30333;52.192;8.834;2022-09-28T14:04:24;11.10;99.90
44627;DHT22;30333;52.192;8.834;2022-09-28T14:07:19;11.20;99.90
44627;DHT22;30333;52.192;8.834;2022-09-28T14:09:46;11.20;99.90
44627;DHT22;30333;52.192;8.834;2022-09-28T14:12:30;11.30;99.90
44627;DHT22;30333;52.192;8.834;2022-09-28T14:15:39;11.30;99.90
44627;DHT22;30333;52.192;8.834;2022-09-28T14:18:26;11.30;99.90
44627;DHT22;30333;52.192;8.834;2022-09-28T14:24:22;11.30;99.90
44627;DHT22;30333;52.192;8.834;2022-09-28T14:27:02;11.30;99.90
44627;DHT22;30333;52.192;8.834;2022-09-28T14:29:35;11.40;99.90
44627;DHT22;30333;52.192;8.834;2022-09-28T14:32:04;11.50;99.90
44627;DHT22;30333;52.192;8.834;2022-09-28T14:34:47;11.60;99.90
44627;DHT22;30333;52.192;8.834;2022-09-28T14:37:26;11.50;99.90
44627;DHT22;30333;52.192;8.834;2022-09-28T14:40:19;11.50;99.90
44627;DHT22;30333;52.192;8.834;2022-09-28T14:43:33;11.50;99.90
44627;DHT22;30333;52.192;8.834;2022-09-28T14:46:33;11.80;99.90
44627;DHT22;30333;52.192;8.834;2022-09-28T14:49:02;11.80;99.90
44627;DHT22;30333;52.192;8.834;2022-09-28T14:51:59;11.80;99.90
44627;DHT22;30333;52.192;8.834;2022-09-28T14:54:38;11.90;99.90
44627;DHT22;30333;52.192;8.834;2022-09-28T14:57:11;11.80;99.90
44627;DHT22;30333;52.192;8.834;2022-09-28T14:59:43;11.70;99.90
44627;DHT22;30333;52.192;8.834;2022-09-28T15:02:17;11.50;99.90
44627;DHT22;30333;52.192;8.834;2022-09-28T15:04:47;11.50;99.90
44627;DHT22;30333;52.192;8.834;2022-09-28T15:07:18;11.60;99.90
44627;DHT22;30333;52.192;8.834;2022-09-28T15:09:48;11.60;99.90
44627;DHT22;30333;52.192;8.834;2022-09-28T15:12:17;11.80;99.90
44627;DHT22;30333;52.192;8.834;2022-09-28T15:14:48;11.80;99.90
44627;DHT22;30333;52.192;8.834;2022-09-28T15:17:20;11.80;99.90
44627;DHT22;30333;52.192;8.834;2022-09-28T15:19:53;11.80;99.90
44627;DHT22;30333;52.192;8.834;2022-09-28T15:22:21;11.90;99.90
44627;DHT22;30333;52.192;8.834;2022-09-28T15:24:55;12.00;99.90
44627;DHT22;30333;52.192;8.834;2022-09-28T15:27:34;11.90;99.90
44627;DHT22;30333;52.192;8.834;2022-09-28T15:30:18;12.00;99.90
44627;DHT22;30333;52.192;8.834;2022-09-28T15:32:47;12.10;99.90
44627;DHT22;30333;52.192;8.834;2022-09-28T15:35:18;12.20;99.90
44627;DHT22;30333;52.192;8.834;2022-09-28T15:37:46;12.20;99.90
44627;DHT22;30333;52.192;8.834;2022-09-28T15:40:24;12.20;99.90
44627;DHT22;30333;52.192;8.834;2022-09-28T15:48:25;12.30;99.90
44627;DHT22;30333;52.192;8.834;2022-09-28T15:51:02;12.30;99.90
44627;DHT22;30333;52.192;8.834;2022-09-28T15:53:31;12.30;99.90
44627;DHT22;30333;52.192;8.834;2022-09-28T15:56:02;12.20;99.90
44627;DHT22;30333;52.192;8.834;2022-09-28T15:58:35;12.20;99.90
44627;DHT22;30333;52.192;8.834;2022-09-28T16:01:25;12.30;99.90
44627;DHT22;30333;52.192;8.834;2022-09-28T16:03:52;12.30;99.90
44627;DHT22;30333;52.192;8.834;2022-09-28T16:06:19;12.30;99.90
44627;DHT22;30333;52.192;8.834;2022-09-28T16:08:46;12.30;99.90
44627;DHT22;30333;52.192;8.834;2022-09-28T16:11:19;12.20;99.90
44627;DHT22;30333;52.192;8.834;2022-09-28T16:13:54;12.20;99.90
44627;DHT22;30333;52.192;8.834;2022-09-28T16:16:26;12.30;99.90
44627;DHT22;30333;52.192;8.834;2022-09-28T16:18:54;12.30;99.90
44627;DHT22;30333;52.192;8.834;2022-09-28T16:21:36;12.20;99.90
44627;DHT22;30333;52.192;8.834;2022-09-28T16:26:35;12.10;99.90
44627;DHT22;30333;52.192;8.834;2022-09-28T16:29:08;12.00;99.90
44627;DHT22;30333;52.192;8.834;2022-09-28T16:31:35;12.00;99.90
44627;DHT22;30333;52.192;8.834;2022-09-28T16:34:16;11.90;99.90
44627;DHT22;30333;52.192;8.834;2022-09-28T16:36:46;12.00;99.90
44627;DHT22;30333;52.192;8.834;2022-09-28T16:39:15;12.00;99.90
44627;DHT22;30333;52.192;8.834;2022-09-28T16:41:46;11.90;99.90
44627;DHT22;30333;52.192;8.834;2022-09-28T16:44:18;11.90;99.90
44627;DHT22;30333;52.192;8.834;2022-09-28T16:46:46;11.90;99.90
44627;DHT22;30333;52.192;8.834;2022-09-28T16:49:14;11.70;99.90
44627;DHT22;30333;52.192;8.834;2022-09-28T16:51:45;11.70;99.90
44627;DHT22;30333;52.192;8.834;2022-09-28T16:54:14;11.80;99.90
44627;DHT22;30333;52.192;8.834;2022-09-28T16:57:03;11.70;99.90
44627;DHT22;30333;52.192;8.834;2022-09-28T16:59:30;11.50;99.90
44627;DHT22;30333;52.192;8.834;2022-09-28T17:01:57;11.40;99.90
44627;DHT22;30333;52.192;8.834;2022-09-28T17:04:25;11.10;99.90
44627;DHT22;30333;52.192;8.834;2022-09-28T17:06:53;11.10;99.90
44627;DHT22;30333;52.192;8.834;2022-09-28T17:14:23;11.00;99.90
44627;DHT22;30333;52.192;8.834;2022-09-28T17:16:51;12.40;99.90